Airfield :







YOU CAN JOIN US ON...

 
LOGIN :

Register | Disclaimer

   EN    FR    IT 

 









Legend :    VFR   Marginal VFR   IFR   Intensive IFR   Very Intensive IFR
Visi :
Ceiling :
>= 8 km
>= 3000ft
5 to 8 km
1000 to 3000 ft
1500m to 5 km
500 to 1000 ft
800 to 1500m
200 to 500 ft
< 800m
< 200 ft
Symbols :   Thunderstorms  Fog  Heavy snow  Heavy precipitations  Wind > 20 kt






- Airport Elevation : 11 ft


KGHG - Marshfield Municipal George Harlow Field

CURRENT METAR :
  • 261955Z AUTO 28008G15KT 240V330 10SM SCT050 10/M02 A2963 RMK AO2

EXPIRED METARs :
  • 261935Z AUTO 24009G16KT 180V260 10SM FEW050 10/M01 A2963 RMK AO2
  • 261915Z AUTO 26007G18KT 230V320 10SM SCT049 SCT055 10/M01 A2963 RMK AO2
  • 261855Z AUTO 26011G18KT 230V310 10SM SCT050 SCT055 10/M01 A2963 RMK AO2
  • 261835Z AUTO 26011G17KT 10SM FEW050 11/M01 A2964 RMK AO2
  • 261815Z AUTO 27011G17KT 240V310 10SM CLR 10/M01 A2964 RMK AO2
  • 261755Z AUTO 29007G17KT 240V310 10SM CLR 10/M01 A2964 RMK AO2
  • 261735Z AUTO VRB06G16KT 10SM CLR 10/M01 A2965 RMK AO2
  • 261715Z AUTO 26009G18KT 220V310 10SM CLR 10/M00 A2965 RMK AO2

TAF N/A



MET'MAP, your aeronautical weather chart ! - Copyright ORBIFLY December 2007 - Disclaimer

ORBIFLY MET'MAP TEAM :

Programming & Development : Alexandra Zaïnal
Concept & original design : Baudouin d'Aumeries
Assistance for programming : Marc-Olivier Méhu
Technical & hardware support : Manuel Goepfert

Contact : metmap@orbifly.com




SOURCES & CREDITS :

   NOAA